Aviation Digital Data Service (ADDS)

Output produced by METARs form (1441 UTC 25 January 2020)
found at http://www.aviationweather.gov/metar/data/
 
LECO 251430Z 02004KT 340V060 9999 FEW030 12/07 Q1016 NOSIG
TAF LECO 251400Z 2515/2615 18003KT 9999 FEW030 TX14/2515Z TN07/2607Z 
     PROB30 
     TEMPO 2515/2517 32010KT 
     PROB30 
     TEMPO 2515/2520 SCT030TCU
       
LEAB 251400Z 16006KT 140V200 9999 -RA FEW020 BKN042 09/07 Q1017 NOSIG
TAF LEAB 251400Z 2515/2524 16007KT 9999 SCT015 BKN045 
     PROB40 
     TEMPO 2515/2517 3000 RA SHRA BKN010 SCT030TCU 
     BECMG 2522/2524 OVC020
       
LERI 251400Z VRB02KT 9999 FEW019 BKN040 14/10 Q1018 NOSIG
TAF LERI 251400Z 2515/2524 VRB03KT 9999 SCT025 
     PROB30 
     TEMPO 2519/2521 4000 SHRA SCT025TCU
       
LEAL 251430Z VRB02KT 9999 FEW017 15/08 Q1017 NOSIG
TAF LEAL 251100Z 2512/2612 07006KT 9999 SCT030 TX16/2512Z TN09/2606Z 
     BECMG 2518/2520 27006KT 
     BECMG 2600/2602 30005KT 
     PROB40 
     TEMPO 2520/2606 4000 SHRA FEW020CB
       
LEAM 251430Z 30007KT 260V350 9999 RA FEW015 BKN060 13/10 Q1017
TAF LEAM 251400Z 2515/2615 32006KT 9999 SCT035 TX17/2613Z TN08/2606Z 
     PROB40 
     TEMPO 2515/2523 4000 SHRA SCT030TCU 
     PROB30 
     TEMPO 2515/2518 2000 TSRA FEW020CB
       
LEGA 251300Z VRB02KT 9999 SCT046 BKN082 10/06 Q1017
TAF LEGA 251400Z 2515/2524 15008KT 9999 SCT035 
     PROB40 
     TEMPO 2515/2518 4000 SHRA SCT030TCU
       
LEAS 251430Z 31003KT 250V350 9999 FEW084 12/07 Q1016 NOSIG
TAF LEAS 251400Z 2515/2615 33005KT 9999 SCT050 TX14/2613Z TN07/2606Z 
     PROB30 
     TEMPO 2515/2524 3000 -RA BKN012 
     BECMG 2518/2522 20010KT
       
LEMD 251430Z 18005KT 100V220 9999 -RA SCT014 BKN030 BKN040 09/07 Q1015 R88/29//95 TEMPO 3000 RA BKN012
TAF LEMD 251100Z 2512/2618 VRB04KT 9999 FEW030 BKN045 TX11/2615Z TN03/2606Z 
     TEMPO 2512/2518 18008KT 
     PROB40 
     TEMPO 2512/2518 18008G18KT 
     PROB40 
     TEMPO 2512/2521 3000 RA SHRA BKN012 SCT025TCU 
     PROB40 
     TEMPO 2600/2611 1500 BCFG BKN004 
     PROB30 
     TEMPO 2602/2608 0300 FG OVC002
       
LEBL 251430Z 06006KT 020V080 9999 FEW014 SCT018 14/10 Q1019 NOSIG
TAF LEBL 251100Z 2512/2612 34007KT 9999 FEW010 SCT030 TX12/2513Z TN08/2607Z 
     TEMPO 2514/2519 03006KT 
     TEMPO 2512/2612 FEW020CB 
     PROB30 
     TEMPO 2522/2608 4000 TSRA SCT020CB 
     TEMPO 2605/2609 34010G20KT
       
LEBB 251430Z 15005KT 080V230 9999 FEW046 14/06 Q1016 NOSIG
TAF LEBB 251100Z 2512/2612 18006KT 9999 SCT060 TX13/2514Z TN04/2607Z 
     PROB30 
     TEMPO 2515/2602 3000 -RA SHRA BKN012 SCT030TCU
       
LEBG 251430Z 02006KT 9999 SCT012 BKN018 BKN034 05/04 Q1015
TAF LEBG 251400Z 2515/2524 VRB04KT 9999 BKN016 BKN025 BKN040 
     PROB40 
     TEMPO 2515/2518 3000 RA FEW008 BKN012 
     TEMPO 2518/2520 OVC003 
     BECMG 2522/2524 NSW OVC017
       
LEBA 251430Z VRB01KT 9999 SCT045 11/08 Q1016
TAF LEBA 251400Z 2515/2524 06006KT 9999 SCT035 
     PROB40 
     TEMPO 2515/2520 4000 SHRA SCT030TCU
       
LEVS 251430Z 16009KT 9999 -RA SCT010 BKN020 09/07 Q1015
TAF LEVS 251400Z 2515/2524 VRB04KT 9999 FEW025 BKN030 
     TEMPO 2515/2518 17008KT 
     PROB40 
     TEMPO 2515/2521 3000 RA SHRA BKN010 SCT025TCU 
     TEMPO 2520/2524 OVC014
       
GCFV 251430Z 35010KT 320V020 9999 FEW040 22/06 Q1022
TAF GCFV 251400Z 2515/2615 34009KT 9999 SCT035 TX21/2515Z TN13/2606Z 
     BECMG 2609/2611 04010KT
       
LEGT 251400Z 17012KT 9999 -RA FEW011 SCT013 BKN017 10/08 Q1016
TAF LEGT 251400Z 2515/2524 VRB04KT 9999 FEW030 BKN040 
     TEMPO 2515/2518 17008KT 
     PROB40 
     TEMPO 2515/2521 3000 RA SHRA FEW006 BKN012 SCT025TCU 
     TEMPO 2520/2524 OVC008
       
LEGE 251430Z 20005KT 160V230 9999 SCT020 13/10 Q1019
TAF LEGE 251100Z 2512/2612 VRB03KT 9999 SCT020 SCT030 TX15/2512Z TN04/2606Z 
     TEMPO 2512/2517 17008KT 
     PROB40 
     TEMPO 2521/2607 3500 BR BKN014
       
GCLP 251430Z 03017KT 9999 FEW045 BKN050 20/10 Q1023 NOSIG
TAF GCLP 251400Z 2515/2615 03014KT 9999 SCT035 TX21/2515Z TN14/2606Z 
     PROB40 
     TEMPO 2518/2610 33010KT
       
LEGR 251430Z 20005KT 160V240 9999 -RA FEW015 SCT030 OVC040 10/07 Q1016
TAF LEGR 251400Z 2515/2615 15008KT 9999 FEW030 SCT040 TX13/2615Z TN03/2607Z 
     PROB40 
     TEMPO 2515/2524 4000 SHRA SCT030TCU 
     PROB40 
     TEMPO 2600/2609 3000 BR BKN010
       
GCHI 251430Z 01008KT 340V050 9999 FEW035 21/12 Q1023
TAF GCHI 251400Z 2515/2615 36008KT 9999 SCT040 TX20/2515Z TN15/2606Z
       
LEIB 251430Z 07005KT 9999 FEW012 15/13 Q1017 NOSIG
TAF LEIB 251400Z 2515/2615 VRB04KT 9999 FEW020 TX16/2612Z TN09/2606Z 
     PROB30 
     TEMPO 2601/2606 BKN014 
     BECMG 2602/2604 30007KT
       
LEJR 251430Z 17012KT 140V200 9999 FEW012 BKN026 12/10 Q1016
TAF LEJR 251100Z 2512/2612 17010KT 9999 SCT020 TX14/2513Z TN05/2606Z 
     TEMPO 2512/2517 4000 SHRA BKN014 SCT030TCU 
     PROB30 
     TEMPO 2512/2515 2000 TSRA SCT030CB 
     BECMG 2514/2516 24007KT 
     PROB40 
     TEMPO 2602/2610 3000 BR BKN008 
     PROB30 
     TEMPO 2604/2609 0800 FG
       
GCGM 251430Z 19008KT 150V260 9999 FEW040 21/09 Q1023 RMK R09/VRB04KT ARP/VRB05KT
TAF GCGM 251400Z 2515/2615 VRB05KT 9999 SCT040 TX22/2515Z TN15/2606Z 
     PROB40 
     TEMPO 2520/2608 34010KT 
     BECMG 2608/2610 11010KT
       
GCLA 251430Z 06005KT 010V100 9999 BKN055 21/11 Q1023
TAF GCLA 251400Z 2515/2615 32010KT 9999 SCT030 TX21/2515Z TN14/2606Z 
     PROB30 
     TEMPO 2515/2518 03006KT 
     BECMG 2612/2614 02005KT
       
GCRR 251430Z 30010KT 260V340 9999 FEW045 22/06 Q1022
TAF GCRR 251400Z 2515/2615 34009KT 9999 SCT035 TX22/2515Z TN13/2606Z 
     BECMG 2609/2611 04010KT
       
LELN 251430Z VRB02KT 9999 FEW016 SCT025 BKN050 07/04 Q1015
TAF LELN 251400Z 2515/2524 VRB04KT 9999 FEW012 BKN025 
     BECMG 2522/2524 0100 FG VV002
       
LEMG 251430Z 10008KT 9999 FEW015 SCT035 BKN065 13/11 Q1017 NOSIG
TAF LEMG 251100Z 2512/2612 17008KT 9999 FEW015 SCT035 TX15/2514Z TN08/2606Z 
     TEMPO 2512/2522 4000 SHRA SCT025TCU 
     PROB40 
     TEMPO 2512/2516 2000 TSRA SCT020CB 
     BECMG 2520/2523 29007KT
       
GEML 251430Z 26003KT 160V320 CAVOK 20/06 Q1016
TAF GEML 251400Z 2515/2615 25009KT 9999 FEW020 TX17/2613Z TN12/2606Z 
     PROB30 
     TEMPO 2600/2608 4000 SHRA SCT030TCU 
     PROB40 
     TEMPO 2612/2615 27015G25KT
       
LEMH 251430Z 12010KT 090V160 9999 SCT010 15/12 Q1019
TAF LEMH 251400Z 2515/2615 13009KT 9999 FEW020 TX16/2612Z TN10/2606Z 
     BECMG 2603/2605 VRB03KT 
     BECMG 2608/2610 30008KT 
     PROB30 
     TEMPO 2603/2608 BKN014
       
LEMO 251400Z 18014KT 9999 FEW015 BKN055 14/11 Q1016 NOSIG
TAF LEMO 251400Z 2515/2524 18009KT 9999 SCT035 
     PROB40 
     TEMPO 2515/2520 4000 SHRA SCT030TCU
       
LEPP 251430Z 11006KT 070V140 9999 SCT025 BKN040 09/06 Q1016
TAF LEPP 251400Z 2515/2615 VRB06KT 9000 SCT018 BKN030 TX11/2615Z TN04/2608Z 
     PROB40 
     TEMPO 2515/2606 3000 -RA SHRA BKN010 SCT030TCU 
     PROB40 
     TEMPO 2600/2606 1500 BCFG BKN004 
     PROB40 
     TEMPO 2600/2606 0600 FG BKN001
       
LERS 251430Z 09003KT 010V150 9999 SCT019 BKN024 13/10 Q1018
TAF LERS 251400Z 2515/2615 VRB04KT 9999 SCT015 BKN020 TX14/2612Z TN09/2606Z 
     TEMPO 2515/2521 BKN014 
     PROB40 2520/2606 4000 SHRA FEW015TCU
       
LERT 251400Z 15006KT 9999 SCT024 SCT059 14/12 Q1015 NOSIG
TAF LERT 251400Z 2515/2524 19009KT 9999 SCT030 
     PROB40 
     TEMPO 2515/2517 4000 SHRA SCT030TCU
       
LESA 251430Z 28003KT 240V320 9999 FEW017 BKN030 08/05 Q1015
TAF AMD LESA 251230Z 2512/2612 VRB05KT 9999 SCT007 BKN040 TX07/2514Z TNM01/2607Z

     PROB40 
     TEMPO 2512/2515 3000 RA BR BKN010 
     TEMPO 2522/2610 0100 FG VV001 
     TEMPO 2523/2611 BKN003 
     BECMG 2607/2609 22010KT
       
LESO 251430Z 14007KT 110V170 9999 -RA FEW035 SCT055 BKN065 14/07 Q1016
TAF LESO 251100Z 2512/2612 20006KT 9999 SCT055 TX14/2514Z TN07/2608Z 
     PROB30 
     TEMPO 2514/2606 3000 -RA SHRA BKN012 SCT030TCU
       
LEXJ 251430Z VRB02KT CAVOK 13/09 Q1016
TAF LEXJ 251400Z 2515/2615 08005KT 9999 FEW035 SCT050 TX14/2614Z TN05/2606Z 
     PROB30 
     TEMPO 2515/2524 3000 -RA BKN012
       
LEST 251430Z 00000KT 9999 FEW038 12/05 Q1016 NOSIG
TAF LEST 251100Z 2512/2612 VRB04KT 9000 FEW030 TX11/2515Z TN05/2602Z 
     TEMPO 2518/2612 3000 -DZ BR BKN010 
     TEMPO 2522/2606 1000 DZ BCFG BKN003 
     PROB40 
     TEMPO 2523/2606 0350 DZ FG BKN001
       
LESU 251430Z 06003KT 9999 BKN033 BKN064 04/03 Q1019
TAF LESU 251400Z 2515/2615 VRB03KT 9999 BKN025 TX06/2614Z TN01/2607Z 
     PROB40 
     TEMPO 2600/2607 3000 RA BR OVC006
       
LEZL 251430Z 17005KT 130V200 9999 VCSH FEW015 FEW025TCU BKN040 14/11 Q1015 NOSIG
TAF LEZL 251400Z 2515/2615 21006KT 9999 SCT035 TX15/2615Z TN07/2607Z 
     PROB40 
     TEMPO 2515/2517 4000 SHRA SCT030CB 
     PROB40 
     TEMPO 2600/2609 3000 BR
       
LESB 251430Z AUTO 05007KT 9999 BKN023/// BKN031/// BKN039/// 16/11 Q1019
LEBZ 251400Z 27003KT 200V340 9999 FEW030TCU BKN049 13/09 Q1015
TAF LEBZ 251100Z 2512/2612 VRB04KT 9999 SCT035 TX14/2513Z TN04/2606Z 
     PROB30 
     TEMPO 2513/2516 4000 SHRA SCT030TCU 
     TEMPO 2602/2611 4000 BR BKN010 
     PROB40 
     TEMPO 2603/2609 0800 FG
       
GCXO 251430Z 30008KT 270V340 9999 SCT018 15/08 Q1024 NOSIG
TAF GCXO 251400Z 2515/2615 32010KT 9999 SCT016 TX16/2515Z TN09/2606Z 
     BECMG 2609/2611 11006KT 
     PROB30 
     TEMPO 2521/2607 BKN014
       
GCTS 251430Z 19006KT 160V220 9999 SCT050 20/12 Q1023 NOSIG
TAF GCTS 251400Z 2515/2615 17010KT 9999 SCT035 TX21/2515Z TN13/2606Z 
     PROB40 
     TEMPO 2517/2519 11005KT 
     BECMG 2519/2522 36010KT 
     BECMG 2610/2612 06011KT
       
LETO 251400Z 16008KT 120V180 8000 -RA FEW014 SCT018 BKN027 09/07 Q1016 TEMPO 3000 RA BKN012
TAF LETO 251100Z 2512/2612 VRB04KT 9999 FEW035 BKN045 TX10/2515Z TN03/2606Z 
     TEMPO 2512/2518 18008KT 
     PROB40 
     TEMPO 2512/2521 3000 RA SHRA BKN012 SCT025TCU 
     PROB40 
     TEMPO 2600/2611 1500 BCFG BKN004 
     PROB30 
     TEMPO 2602/2608 0300 FG OVC002
       
LEVC 251430Z 11007KT 080V140 9999 FEW020 BKN030 14/11 Q1018 NOSIG
TAF LEVC 251100Z 2512/2612 VRB03KT 9999 FEW020 SCT030 TX15/2512Z TN10/2606Z 
     PROB30 
     TEMPO 2515/2521 6000 RADZ BKN014
       
LEVD 251430Z VRB02KT 9999 FEW010 BKN025 07/05 Q1015
TAF AMD LEVD 251229Z 2512/2612 VRB05KT 9999 SCT006 BKN040 TX06/2515Z TNM00/2607Z

     PROB40 
     TEMPO 2512/2518 3000 RA SHRA BR BKN012 SCT035TCU 
     TEMPO 2600/2609 0300 FG OVC002 
     TEMPO 2518/2611 OVC010 
     BECMG 2609/2611 22010KT
       
LEVX 251430Z 25007KT 220V290 9999 FEW025 12/06 Q1016 NOSIG
TAF LEVX 251100Z 2512/2612 18005KT 8000 FEW050 TX12/2514Z TN05/2600Z 
     PROB40 
     TEMPO 2514/2517 28010KT 
     TEMPO 2520/2612 3000 BR BKN010 
     TEMPO 2600/2612 1400 BCFG BKN005 
     PROB40 
     TEMPO 2602/2606 0500 DZ BCFG BKN001
       
LEVT 251430Z 17008KT 150V210 9999 FEW012 OVC021 09/05 Q1016
TAF LEVT 251100Z 2512/2612 23005KT 7000 FEW010 SCT050 TX08/2515Z TN01/2608Z 
     PROB40 
     TEMPO 2512/2606 3000 -RA SHRA BKN010 SCT030TCU
       
LEZG 251430Z 10008KT 9999 BKN055 12/09 Q1017
TAF LEZG 251100Z 2512/2612 11008KT 9999 SCT009 SCT030 TX09/2513Z TN05/2606Z 
     PROB40 
     TEMPO 2512/2515 4000 RADZ BKN007 
     BECMG 2520/2522 VRB04KT 
     PROB40 
     TEMPO 2520/2602 4000 RA BKN009 
     BECMG 2604/2607 28006KT